sensor_id;sensor_type;location;lat;lon;timestamp;temperature;humidity
69533;DHT22;56729;52.036;5.332;2022-11-14T00:00:29;7.30;99.90
69533;DHT22;56729;52.036;5.332;2022-11-14T00:01:49;7.30;99.90
69533;DHT22;56729;52.036;5.332;2022-11-14T00:03:10;7.30;99.90
69533;DHT22;56729;52.036;5.332;2022-11-14T00:04:31;7.30;99.90
69533;DHT22;56729;52.036;5.332;2022-11-14T00:05:51;7.30;99.90
69533;DHT22;56729;52.036;5.332;2022-11-14T00:07:12;7.30;99.90
69533;DHT22;56729;52.036;5.332;2022-11-14T00:08:32;7.30;99.90
69533;DHT22;56729;52.036;5.332;2022-11-14T00:09:53;7.30;99.90
69533;DHT22;56729;52.036;5.332;2022-11-14T00:11:13;7.30;99.90
69533;DHT22;56729;52.036;5.332;2022-11-14T00:12:34;7.20;99.90
69533;DHT22;56729;52.036;5.332;2022-11-14T00:13:54;7.20;99.90
69533;DHT22;56729;52.036;5.332;2022-11-14T00:15:15;7.20;99.90
69533;DHT22;56729;52.036;5.332;2022-11-14T00:16:36;7.20;99.90
69533;DHT22;56729;52.036;5.332;2022-11-14T00:17:56;7.10;99.90
69533;DHT22;56729;52.036;5.332;2022-11-14T00:19:16;7.10;99.90
69533;DHT22;56729;52.036;5.332;2022-11-14T00:20:37;7.10;99.90
69533;DHT22;56729;52.036;5.332;2022-11-14T00:21:57;7.10;99.90
69533;DHT22;56729;52.036;5.332;2022-11-14T00:23:20;7.20;99.90
69533;DHT22;56729;52.036;5.332;2022-11-14T00:24:40;7.20;99.90
69533;DHT22;56729;52.036;5.332;2022-11-14T00:26:01;7.20;99.90
69533;DHT22;56729;52.036;5.332;2022-11-14T00:27:21;7.20;99.90
69533;DHT22;56729;52.036;5.332;2022-11-14T00:28:41;7.10;99.90
69533;DHT22;56729;52.036;5.332;2022-11-14T00:30:02;7.10;99.90
69533;DHT22;56729;52.036;5.332;2022-11-14T00:31:22;7.10;99.90
69533;DHT22;56729;52.036;5.332;2022-11-14T00:32:43;7.10;99.90
69533;DHT22;56729;52.036;5.332;2022-11-14T00:34:03;7.10;99.90
69533;DHT22;56729;52.036;5.332;2022-11-14T00:35:23;7.10;99.90
69533;DHT22;56729;52.036;5.332;2022-11-14T00:36:44;7.00;99.90
69533;DHT22;56729;52.036;5.332;2022-11-14T00:38:04;7.00;99.90
69533;DHT22;56729;52.036;5.332;2022-11-14T00:39:25;7.00;99.90
69533;DHT22;56729;52.036;5.332;2022-11-14T00:40:45;7.00;99.90
69533;DHT22;56729;52.036;5.332;2022-11-14T00:42:06;7.00;99.90
69533;DHT22;56729;52.036;5.332;2022-11-14T00:43:26;7.00;99.90
69533;DHT22;56729;52.036;5.332;2022-11-14T00:44:46;7.00;99.90
69533;DHT22;56729;52.036;5.332;2022-11-14T00:46:07;7.00;99.90
69533;DHT22;56729;52.036;5.332;2022-11-14T00:47:27;7.00;99.90
69533;DHT22;56729;52.036;5.332;2022-11-14T00:48:47;7.00;99.90
69533;DHT22;56729;52.036;5.332;2022-11-14T00:50:09;7.00;99.90
69533;DHT22;56729;52.036;5.332;2022-11-14T00:51:29;7.00;99.90
69533;DHT22;56729;52.036;5.332;2022-11-14T00:52:49;7.00;99.90
69533;DHT22;56729;52.036;5.332;2022-11-14T00:54:09;7.00;99.90
69533;DHT22;56729;52.036;5.332;2022-11-14T00:55:30;7.00;99.90
69533;DHT22;56729;52.036;5.332;2022-11-14T00:56:50;7.10;99.90
69533;DHT22;56729;52.036;5.332;2022-11-14T00:58:10;7.00;99.90
69533;DHT22;56729;52.036;5.332;2022-11-14T00:59:31;7.00;99.90
69533;DHT22;56729;52.036;5.332;2022-11-14T01:00:52;7.00;99.90
69533;DHT22;56729;52.036;5.332;2022-11-14T01:02:13;7.00;99.90
69533;DHT22;56729;52.036;5.332;2022-11-14T01:03:33;6.90;99.90
69533;DHT22;56729;52.036;5.332;2022-11-14T01:04:54;6.90;99.90
69533;DHT22;56729;52.036;5.332;2022-11-14T01:06:14;6.90;99.90
69533;DHT22;56729;52.036;5.332;2022-11-14T01:07:35;6.80;99.90
69533;DHT22;56729;52.036;5.332;2022-11-14T01:08:55;6.80;99.90
69533;DHT22;56729;52.036;5.332;2022-11-14T01:10:16;6.80;99.90
69533;DHT22;56729;52.036;5.332;2022-11-14T01:11:37;6.80;99.90
69533;DHT22;56729;52.036;5.332;2022-11-14T01:12:57;6.80;99.90
69533;DHT22;56729;52.036;5.332;2022-11-14T01:14:17;6.80;99.90
69533;DHT22;56729;52.036;5.332;2022-11-14T01:15:48;6.80;99.90
69533;DHT22;56729;52.036;5.332;2022-11-14T01:17:08;6.80;99.90
69533;DHT22;56729;52.036;5.332;2022-11-14T01:18:29;6.70;99.90
69533;DHT22;56729;52.036;5.332;2022-11-14T01:19:50;6.70;99.90
69533;DHT22;56729;52.036;5.332;2022-11-14T01:21:12;6.70;99.90
69533;DHT22;56729;52.036;5.332;2022-11-14T01:22:32;6.70;99.90
69533;DHT22;56729;52.036;5.332;2022-11-14T01:23:53;6.70;99.90
69533;DHT22;56729;52.036;5.332;2022-11-14T01:25:13;6.70;99.90
69533;DHT22;56729;52.036;5.332;2022-11-14T01:26:33;6.60;99.90
69533;DHT22;56729;52.036;5.332;2022-11-14T01:27:53;6.60;99.90
69533;DHT22;56729;52.036;5.332;2022-11-14T01:29:14;6.60;99.90
69533;DHT22;56729;52.036;5.332;2022-11-14T01:30:35;6.60;99.90
69533;DHT22;56729;52.036;5.332;2022-11-14T01:31:56;6.60;99.90
69533;DHT22;56729;52.036;5.332;2022-11-14T01:33:16;6.60;99.90
69533;DHT22;56729;52.036;5.332;2022-11-14T01:34:37;6.60;99.90
69533;DHT22;56729;52.036;5.332;2022-11-14T01:35:58;6.60;99.90
69533;DHT22;56729;52.036;5.332;2022-11-14T01:37:19;6.60;99.90
69533;DHT22;56729;52.036;5.332;2022-11-14T01:38:39;6.60;99.90
69533;DHT22;56729;52.036;5.332;2022-11-14T01:40:00;6.60;99.90
69533;DHT22;56729;52.036;5.332;2022-11-14T01:41:21;6.60;99.90
69533;DHT22;56729;52.036;5.332;2022-11-14T01:42:41;6.60;99.90
69533;DHT22;56729;52.036;5.332;2022-11-14T01:44:02;6.60;99.90
69533;DHT22;56729;52.036;5.332;2022-11-14T01:47:19;6.60;99.90
69533;DHT22;56729;52.036;5.332;2022-11-14T01:48:51;6.60;99.90
69533;DHT22;56729;52.036;5.332;2022-11-14T01:50:13;6.60;99.90
69533;DHT22;56729;52.036;5.332;2022-11-14T01:51:41;6.60;99.90
69533;DHT22;56729;52.036;5.332;2022-11-14T01:53:03;6.50;99.90
69533;DHT22;56729;52.036;5.332;2022-11-14T01:54:29;6.50;99.90
69533;DHT22;56729;52.036;5.332;2022-11-14T01:55:53;6.50;99.90
69533;DHT22;56729;52.036;5.332;2022-11-14T01:57:21;6.50;99.90
69533;DHT22;56729;52.036;5.332;2022-11-14T01:58:47;6.50;99.90
69533;DHT22;56729;52.036;5.332;2022-11-14T02:00:10;6.50;99.90
69533;DHT22;56729;52.036;5.332;2022-11-14T02:01:36;6.50;99.90
69533;DHT22;56729;52.036;5.332;2022-11-14T02:02:57;6.50;99.90
69533;DHT22;56729;52.036;5.332;2022-11-14T02:04:22;6.50;99.90
69533;DHT22;56729;52.036;5.332;2022-11-14T02:05:44;6.50;99.90
69533;DHT22;56729;52.036;5.332;2022-11-14T02:07:06;6.50;99.90
69533;DHT22;56729;52.036;5.332;2022-11-14T02:08:29;6.40;99.90
69533;DHT22;56729;52.036;5.332;2022-11-14T02:09:49;6.40;99.90
69533;DHT22;56729;52.036;5.332;2022-11-14T02:11:11;6.40;99.90
69533;DHT22;56729;52.036;5.332;2022-11-14T02:12:34;6.40;99.90
69533;DHT22;56729;52.036;5.332;2022-11-14T02:13:55;6.40;99.90
69533;DHT22;56729;52.036;5.332;2022-11-14T02:15:15;6.40;99.90
69533;DHT22;56729;52.036;5.332;2022-11-14T02:16:40;6.40;99.90
69533;DHT22;56729;52.036;5.332;2022-11-14T02:18:20;6.30;99.90
69533;DHT22;56729;52.036;5.332;2022-11-14T02:19:46;6.30;99.90
69533;DHT22;56729;52.036;5.332;2022-11-14T02:21:07;6.30;99.90
69533;DHT22;56729;52.036;5.332;2022-11-14T02:22:28;6.30;99.90
69533;DHT22;56729;52.036;5.332;2022-11-14T02:23:49;6.30;99.90
69533;DHT22;56729;52.036;5.332;2022-11-14T02:25:12;6.30;99.90
69533;DHT22;56729;52.036;5.332;2022-11-14T02:26:35;6.30;99.90
69533;DHT22;56729;52.036;5.332;2022-11-14T02:27:57;6.20;99.90
69533;DHT22;56729;52.036;5.332;2022-11-14T02:29:19;6.20;99.90
69533;DHT22;56729;52.036;5.332;2022-11-14T02:30:39;6.20;99.90
69533;DHT22;56729;52.036;5.332;2022-11-14T02:32:00;6.20;99.90
69533;DHT22;56729;52.036;5.332;2022-11-14T02:33:27;6.20;99.90
69533;DHT22;56729;52.036;5.332;2022-11-14T02:34:47;6.20;99.90
69533;DHT22;56729;52.036;5.332;2022-11-14T02:36:08;6.10;99.90
69533;DHT22;56729;52.036;5.332;2022-11-14T02:37:28;6.10;99.90
69533;DHT22;56729;52.036;5.332;2022-11-14T02:38:49;6.10;99.90
69533;DHT22;56729;52.036;5.332;2022-11-14T02:40:09;6.10;99.90
69533;DHT22;56729;52.036;5.332;2022-11-14T02:41:30;6.10;99.90
69533;DHT22;56729;52.036;5.332;2022-11-14T02:42:50;6.10;99.90
69533;DHT22;56729;52.036;5.332;2022-11-14T02:44:10;6.00;99.90
69533;DHT22;56729;52.036;5.332;2022-11-14T02:45:31;6.00;99.90
69533;DHT22;56729;52.036;5.332;2022-11-14T02:46:51;6.00;99.90
69533;DHT22;56729;52.036;5.332;2022-11-14T02:48:12;6.00;99.90
69533;DHT22;56729;52.036;5.332;2022-11-14T02:49:32;6.00;99.90
69533;DHT22;56729;52.036;5.332;2022-11-14T02:50:53;6.00;99.90
69533;DHT22;56729;52.036;5.332;2022-11-14T02:52:14;6.00;99.90
69533;DHT22;56729;52.036;5.332;2022-11-14T02:53:34;5.90;99.90
69533;DHT22;56729;52.036;5.332;2022-11-14T02:54:54;5.90;99.90
69533;DHT22;56729;52.036;5.332;2022-11-14T02:56:15;5.90;99.90
69533;DHT22;56729;52.036;5.332;2022-11-14T02:57:36;5.90;99.90
69533;DHT22;56729;52.036;5.332;2022-11-14T02:58:57;5.90;99.90
69533;DHT22;56729;52.036;5.332;2022-11-14T03:00:18;5.90;99.90
69533;DHT22;56729;52.036;5.332;2022-11-14T03:01:38;5.90;99.90
69533;DHT22;56729;52.036;5.332;2022-11-14T03:02:58;5.90;99.90
69533;DHT22;56729;52.036;5.332;2022-11-14T03:04:19;5.90;99.90
69533;DHT22;56729;52.036;5.332;2022-11-14T03:05:39;5.90;99.90
69533;DHT22;56729;52.036;5.332;2022-11-14T03:07:00;5.90;99.90
69533;DHT22;56729;52.036;5.332;2022-11-14T03:08:20;5.90;99.90
69533;DHT22;56729;52.036;5.332;2022-11-14T03:09:41;5.90;99.90
69533;DHT22;56729;52.036;5.332;2022-11-14T03:11:05;5.90;99.90
69533;DHT22;56729;52.036;5.332;2022-11-14T03:12:26;5.90;99.90
69533;DHT22;56729;52.036;5.332;2022-11-14T03:13:46;5.80;99.90
69533;DHT22;56729;52.036;5.332;2022-11-14T03:15:07;5.80;99.90
69533;DHT22;56729;52.036;5.332;2022-11-14T03:16:28;5.80;99.90
69533;DHT22;56729;52.036;5.332;2022-11-14T03:17:49;5.80;99.90
69533;DHT22;56729;52.036;5.332;2022-11-14T03:19:09;5.80;99.90
69533;DHT22;56729;52.036;5.332;2022-11-14T03:20:30;5.70;99.90
69533;DHT22;56729;52.036;5.332;2022-11-14T03:21:50;5.70;99.90
69533;DHT22;56729;52.036;5.332;2022-11-14T03:23:10;5.70;99.90
69533;DHT22;56729;52.036;5.332;2022-11-14T03:24:31;5.70;99.90
69533;DHT22;56729;52.036;5.332;2022-11-14T03:25:52;5.70;99.90
69533;DHT22;56729;52.036;5.332;2022-11-14T03:27:12;5.70;99.90
69533;DHT22;56729;52.036;5.332;2022-11-14T03:28:33;5.70;99.90
69533;DHT22;56729;52.036;5.332;2022-11-14T03:29:53;5.70;99.90
69533;DHT22;56729;52.036;5.332;2022-11-14T03:31:14;5.70;99.90
69533;DHT22;56729;52.036;5.332;2022-11-14T03:32:34;5.70;99.90
69533;DHT22;56729;52.036;5.332;2022-11-14T03:33:55;5.70;99.90
69533;DHT22;56729;52.036;5.332;2022-11-14T03:35:15;5.60;99.90
69533;DHT22;56729;52.036;5.332;2022-11-14T03:36:36;5.70;99.90
69533;DHT22;56729;52.036;5.332;2022-11-14T03:37:56;5.60;99.90
69533;DHT22;56729;52.036;5.332;2022-11-14T03:39:17;5.60;99.90
69533;DHT22;56729;52.036;5.332;2022-11-14T03:40:40;5.60;99.90
69533;DHT22;56729;52.036;5.332;2022-11-14T03:42:01;5.60;99.90
69533;DHT22;56729;52.036;5.332;2022-11-14T03:43:21;5.60;99.90
69533;DHT22;56729;52.036;5.332;2022-11-14T03:44:41;5.60;99.90
69533;DHT22;56729;52.036;5.332;2022-11-14T03:46:02;5.50;99.90
69533;DHT22;56729;52.036;5.332;2022-11-14T03:47:22;5.50;99.90
69533;DHT22;56729;52.036;5.332;2022-11-14T03:48:43;5.50;99.90
69533;DHT22;56729;52.036;5.332;2022-11-14T03:50:04;5.50;99.90
69533;DHT22;56729;52.036;5.332;2022-11-14T03:51:24;5.50;99.90
69533;DHT22;56729;52.036;5.332;2022-11-14T03:52:48;5.50;99.90
69533;DHT22;56729;52.036;5.332;2022-11-14T03:54:08;5.40;99.90
69533;DHT22;56729;52.036;5.332;2022-11-14T03:55:28;5.40;99.90
69533;DHT22;56729;52.036;5.332;2022-11-14T03:56:49;5.40;99.90
69533;DHT22;56729;52.036;5.332;2022-11-14T03:58:09;5.40;99.90
69533;DHT22;56729;52.036;5.332;2022-11-14T03:59:29;5.40;99.90
69533;DHT22;56729;52.036;5.332;2022-11-14T04:00:50;5.40;99.90
69533;DHT22;56729;52.036;5.332;2022-11-14T04:02:10;5.40;99.90
69533;DHT22;56729;52.036;5.332;2022-11-14T04:03:31;5.40;99.90
69533;DHT22;56729;52.036;5.332;2022-11-14T04:04:51;5.30;99.90
69533;DHT22;56729;52.036;5.332;2022-11-14T04:06:12;5.30;99.90
69533;DHT22;56729;52.036;5.332;2022-11-14T04:07:32;5.30;99.90
69533;DHT22;56729;52.036;5.332;2022-11-14T04:08:53;5.30;99.90
69533;DHT22;56729;52.036;5.332;2022-11-14T04:10:16;5.30;99.90
69533;DHT22;56729;52.036;5.332;2022-11-14T04:11:37;5.30;99.90
69533;DHT22;56729;52.036;5.332;2022-11-14T04:12:57;5.30;99.90
69533;DHT22;56729;52.036;5.332;2022-11-14T04:14:17;5.30;99.90
69533;DHT22;56729;52.036;5.332;2022-11-14T04:15:37;5.20;99.90
69533;DHT22;56729;52.036;5.332;2022-11-14T04:16:58;5.20;99.90
69533;DHT22;56729;52.036;5.332;2022-11-14T04:18:19;5.20;99.90
69533;DHT22;56729;52.036;5.332;2022-11-14T04:19:39;5.20;99.90
69533;DHT22;56729;52.036;5.332;2022-11-14T04:21:00;5.20;99.90
69533;DHT22;56729;52.036;5.332;2022-11-14T04:22:20;5.20;99.90
69533;DHT22;56729;52.036;5.332;2022-11-14T04:23:41;5.20;99.90
69533;DHT22;56729;52.036;5.332;2022-11-14T04:25:01;5.20;99.90
69533;DHT22;56729;52.036;5.332;2022-11-14T04:26:21;5.20;99.90
69533;DHT22;56729;52.036;5.332;2022-11-14T04:27:42;5.20;99.90
69533;DHT22;56729;52.036;5.332;2022-11-14T04:29:03;5.20;99.90
69533;DHT22;56729;52.036;5.332;2022-11-14T04:30:23;5.20;99.90
69533;DHT22;56729;52.036;5.332;2022-11-14T04:31:44;5.20;99.90
69533;DHT22;56729;52.036;5.332;2022-11-14T04:33:04;5.20;99.90
69533;DHT22;56729;52.036;5.332;2022-11-14T04:34:25;5.20;99.90
69533;DHT22;56729;52.036;5.332;2022-11-14T04:35:45;5.20;99.90
69533;DHT22;56729;52.036;5.332;2022-11-14T04:37:05;5.20;99.90
69533;DHT22;56729;52.036;5.332;2022-11-14T04:38:26;5.10;99.90
69533;DHT22;56729;52.036;5.332;2022-11-14T04:39:47;5.10;99.90
69533;DHT22;56729;52.036;5.332;2022-11-14T04:41:07;5.00;99.90
69533;DHT22;56729;52.036;5.332;2022-11-14T04:42:27;5.00;99.90
69533;DHT22;56729;52.036;5.332;2022-11-14T04:43:48;5.00;99.90
69533;DHT22;56729;52.036;5.332;2022-11-14T04:45:10;4.90;99.90
69533;DHT22;56729;52.036;5.332;2022-11-14T04:46:31;4.90;99.90
69533;DHT22;56729;52.036;5.332;2022-11-14T04:47:52;4.90;99.90
69533;DHT22;56729;52.036;5.332;2022-11-14T04:49:12;4.90;99.90
69533;DHT22;56729;52.036;5.332;2022-11-14T04:50:33;4.90;99.90
69533;DHT22;56729;52.036;5.332;2022-11-14T04:51:53;4.90;99.90
69533;DHT22;56729;52.036;5.332;2022-11-14T04:53:14;4.90;99.90
69533;DHT22;56729;52.036;5.332;2022-11-14T04:54:34;4.90;99.90
69533;DHT22;56729;52.036;5.332;2022-11-14T04:55:55;4.90;99.90
69533;DHT22;56729;52.036;5.332;2022-11-14T04:57:15;4.80;99.90
69533;DHT22;56729;52.036;5.332;2022-11-14T04:58:36;4.80;99.90
69533;DHT22;56729;52.036;5.332;2022-11-14T04:59:57;4.80;99.90
69533;DHT22;56729;52.036;5.332;2022-11-14T05:01:17;4.80;99.90
69533;DHT22;56729;52.036;5.332;2022-11-14T05:02:38;4.80;99.90
69533;DHT22;56729;52.036;5.332;2022-11-14T05:03:58;4.80;99.90
69533;DHT22;56729;52.036;5.332;2022-11-14T05:05:19;4.80;99.90
69533;DHT22;56729;52.036;5.332;2022-11-14T05:06:39;4.80;99.90
69533;DHT22;56729;52.036;5.332;2022-11-14T05:08:00;4.80;99.90
69533;DHT22;56729;52.036;5.332;2022-11-14T05:09:20;4.80;99.90
69533;DHT22;56729;52.036;5.332;2022-11-14T05:10:44;4.80;99.90
69533;DHT22;56729;52.036;5.332;2022-11-14T05:12:05;4.70;99.90
69533;DHT22;56729;52.036;5.332;2022-11-14T05:13:26;4.70;99.90
69533;DHT22;56729;52.036;5.332;2022-11-14T05:14:46;4.70;99.90
69533;DHT22;56729;52.036;5.332;2022-11-14T05:16:08;4.60;99.90
69533;DHT22;56729;52.036;5.332;2022-11-14T05:17:28;4.60;99.90
69533;DHT22;56729;52.036;5.332;2022-11-14T05:18:52;4.60;99.90
69533;DHT22;56729;52.036;5.332;2022-11-14T05:20:12;4.50;99.90
69533;DHT22;56729;52.036;5.332;2022-11-14T05:21:33;4.50;99.90
69533;DHT22;56729;52.036;5.332;2022-11-14T05:22:55;4.50;99.90
69533;DHT22;56729;52.036;5.332;2022-11-14T05:24:15;4.50;99.90
69533;DHT22;56729;52.036;5.332;2022-11-14T05:25:35;4.50;99.90
69533;DHT22;56729;52.036;5.332;2022-11-14T05:26:55;4.40;99.90
69533;DHT22;56729;52.036;5.332;2022-11-14T05:28:15;4.50;99.90
69533;DHT22;56729;52.036;5.332;2022-11-14T05:29:36;4.40;99.90
69533;DHT22;56729;52.036;5.332;2022-11-14T05:31:04;4.40;99.90
69533;DHT22;56729;52.036;5.332;2022-11-14T05:32:25;4.40;99.90
69533;DHT22;56729;52.036;5.332;2022-11-14T05:33:46;4.40;99.90
69533;DHT22;56729;52.036;5.332;2022-11-14T05:35:08;4.40;99.90
69533;DHT22;56729;52.036;5.332;2022-11-14T05:36:28;4.40;99.90
69533;DHT22;56729;52.036;5.332;2022-11-14T05:37:48;4.30;99.90
69533;DHT22;56729;52.036;5.332;2022-11-14T05:39:09;4.30;99.90
69533;DHT22;56729;52.036;5.332;2022-11-14T05:40:29;4.30;99.90
69533;DHT22;56729;52.036;5.332;2022-11-14T05:41:49;4.20;99.90
69533;DHT22;56729;52.036;5.332;2022-11-14T05:43:10;4.30;99.90
69533;DHT22;56729;52.036;5.332;2022-11-14T05:44:30;4.20;99.90
69533;DHT22;56729;52.036;5.332;2022-11-14T05:45:50;4.20;99.90
69533;DHT22;56729;52.036;5.332;2022-11-14T05:47:11;4.20;99.90
69533;DHT22;56729;52.036;5.332;2022-11-14T05:48:32;4.20;99.90
69533;DHT22;56729;52.036;5.332;2022-11-14T05:49:52;4.20;99.90
69533;DHT22;56729;52.036;5.332;2022-11-14T05:51:13;4.20;99.90
69533;DHT22;56729;52.036;5.332;2022-11-14T05:52:33;4.20;99.90
69533;DHT22;56729;52.036;5.332;2022-11-14T05:53:53;4.20;99.90
69533;DHT22;56729;52.036;5.332;2022-11-14T05:55:14;4.20;99.90
69533;DHT22;56729;52.036;5.332;2022-11-14T05:56:41;4.20;99.90
69533;DHT22;56729;52.036;5.332;2022-11-14T05:58:01;4.20;99.90
69533;DHT22;56729;52.036;5.332;2022-11-14T05:59:21;4.20;99.90
69533;DHT22;56729;52.036;5.332;2022-11-14T06:00:42;4.10;99.90
69533;DHT22;56729;52.036;5.332;2022-11-14T06:02:13;4.10;99.90
69533;DHT22;56729;52.036;5.332;2022-11-14T06:03:36;4.10;99.90
69533;DHT22;56729;52.036;5.332;2022-11-14T06:04:56;4.10;99.90
69533;DHT22;56729;52.036;5.332;2022-11-14T06:06:19;4.10;99.90
69533;DHT22;56729;52.036;5.332;2022-11-14T06:07:39;4.00;99.90
69533;DHT22;56729;52.036;5.332;2022-11-14T06:09:00;4.00;99.90
69533;DHT22;56729;52.036;5.332;2022-11-14T06:10:20;4.00;99.90
69533;DHT22;56729;52.036;5.332;2022-11-14T06:11:41;4.00;99.90
69533;DHT22;56729;52.036;5.332;2022-11-14T06:13:01;4.00;99.90
69533;DHT22;56729;52.036;5.332;2022-11-14T06:14:21;4.00;99.90
69533;DHT22;56729;52.036;5.332;2022-11-14T06:15:42;4.00;99.90
69533;DHT22;56729;52.036;5.332;2022-11-14T06:17:02;4.00;99.90
69533;DHT22;56729;52.036;5.332;2022-11-14T06:18:23;4.00;99.90
69533;DHT22;56729;52.036;5.332;2022-11-14T06:19:43;4.00;99.90
69533;DHT22;56729;52.036;5.332;2022-11-14T06:21:13;4.00;99.90
69533;DHT22;56729;52.036;5.332;2022-11-14T06:22:34;3.90;99.90
69533;DHT22;56729;52.036;5.332;2022-11-14T06:23:55;3.90;99.90
69533;DHT22;56729;52.036;5.332;2022-11-14T06:25:15;3.90;99.90
69533;DHT22;56729;52.036;5.332;2022-11-14T06:26:36;3.90;99.90
69533;DHT22;56729;52.036;5.332;2022-11-14T06:27:57;3.90;99.90
69533;DHT22;56729;52.036;5.332;2022-11-14T06:29:17;3.90;99.90
69533;DHT22;56729;52.036;5.332;2022-11-14T06:30:38;3.90;99.90
69533;DHT22;56729;52.036;5.332;2022-11-14T06:32:00;3.90;99.90
69533;DHT22;56729;52.036;5.332;2022-11-14T06:33:20;3.90;99.90
69533;DHT22;56729;52.036;5.332;2022-11-14T06:34:41;3.90;99.90
69533;DHT22;56729;52.036;5.332;2022-11-14T06:36:06;3.90;99.90
69533;DHT22;56729;52.036;5.332;2022-11-14T06:37:27;3.90;99.90
69533;DHT22;56729;52.036;5.332;2022-11-14T06:38:52;3.90;99.90
69533;DHT22;56729;52.036;5.332;2022-11-14T06:40:14;3.90;99.90
69533;DHT22;56729;52.036;5.332;2022-11-14T06:41:34;3.80;99.90
69533;DHT22;56729;52.036;5.332;2022-11-14T06:42:55;3.80;99.90
69533;DHT22;56729;52.036;5.332;2022-11-14T06:44:16;3.80;99.90
69533;DHT22;56729;52.036;5.332;2022-11-14T06:45:37;3.80;99.90
69533;DHT22;56729;52.036;5.332;2022-11-14T06:46:57;3.80;99.90
69533;DHT22;56729;52.036;5.332;2022-11-14T06:48:18;3.70;99.90
69533;DHT22;56729;52.036;5.332;2022-11-14T06:49:38;3.70;99.90
69533;DHT22;56729;52.036;5.332;2022-11-14T06:51:02;3.70;99.90
69533;DHT22;56729;52.036;5.332;2022-11-14T06:52:23;3.70;99.90
69533;DHT22;56729;52.036;5.332;2022-11-14T06:53:45;3.70;99.90
69533;DHT22;56729;52.036;5.332;2022-11-14T06:55:05;3.70;99.90
69533;DHT22;56729;52.036;5.332;2022-11-14T06:56:26;3.70;99.90
69533;DHT22;56729;52.036;5.332;2022-11-14T06:57:54;3.60;99.90
69533;DHT22;56729;52.036;5.332;2022-11-14T06:59:14;3.60;99.90
69533;DHT22;56729;52.036;5.332;2022-11-14T07:00:35;3.60;99.90
69533;DHT22;56729;52.036;5.332;2022-11-14T07:01:56;3.60;99.90
69533;DHT22;56729;52.036;5.332;2022-11-14T07:03:16;3.60;99.90
69533;DHT22;56729;52.036;5.332;2022-11-14T07:04:37;3.60;99.90
69533;DHT22;56729;52.036;5.332;2022-11-14T07:05:58;3.60;99.90
69533;DHT22;56729;52.036;5.332;2022-11-14T07:07:19;3.60;99.90
69533;DHT22;56729;52.036;5.332;2022-11-14T07:08:39;3.60;99.90
69533;DHT22;56729;52.036;5.332;2022-11-14T07:09:59;3.60;99.90
69533;DHT22;56729;52.036;5.332;2022-11-14T07:11:25;3.50;99.90
69533;DHT22;56729;52.036;5.332;2022-11-14T07:12:47;3.60;99.90
69533;DHT22;56729;52.036;5.332;2022-11-14T07:14:08;3.60;99.90
69533;DHT22;56729;52.036;5.332;2022-11-14T07:15:28;3.60;99.90
69533;DHT22;56729;52.036;5.332;2022-11-14T07:16:49;3.60;99.90
69533;DHT22;56729;52.036;5.332;2022-11-14T07:18:09;3.60;99.90
69533;DHT22;56729;52.036;5.332;2022-11-14T07:19:30;3.60;99.90
69533;DHT22;56729;52.036;5.332;2022-11-14T07:20:56;3.60;99.90
69533;DHT22;56729;52.036;5.332;2022-11-14T07:22:17;3.60;99.90
69533;DHT22;56729;52.036;5.332;2022-11-14T07:23:38;3.60;99.90
69533;DHT22;56729;52.036;5.332;2022-11-14T07:24:59;3.60;99.90
69533;DHT22;56729;52.036;5.332;2022-11-14T07:26:20;3.60;99.90
69533;DHT22;56729;52.036;5.332;2022-11-14T07:27:40;3.60;99.90
69533;DHT22;56729;52.036;5.332;2022-11-14T07:29:01;3.60;99.90
69533;DHT22;56729;52.036;5.332;2022-11-14T07:30:22;3.60;99.90
69533;DHT22;56729;52.036;5.332;2022-11-14T07:31:42;3.60;99.90
69533;DHT22;56729;52.036;5.332;2022-11-14T07:33:02;3.70;99.90
69533;DHT22;56729;52.036;5.332;2022-11-14T07:34:23;3.70;99.90
69533;DHT22;56729;52.036;5.332;2022-11-14T07:35:44;3.70;99.90
69533;DHT22;56729;52.036;5.332;2022-11-14T07:37:04;3.70;99.90
69533;DHT22;56729;52.036;5.332;2022-11-14T07:38:25;3.70;99.90
69533;DHT22;56729;52.036;5.332;2022-11-14T07:39:45;3.70;99.90
69533;DHT22;56729;52.036;5.332;2022-11-14T07:41:10;3.70;99.90
69533;DHT22;56729;52.036;5.332;2022-11-14T07:42:30;3.70;99.90
69533;DHT22;56729;52.036;5.332;2022-11-14T07:43:51;3.70;99.90
69533;DHT22;56729;52.036;5.332;2022-11-14T07:45:11;3.70;99.90
69533;DHT22;56729;52.036;5.332;2022-11-14T07:46:32;3.80;99.90
69533;DHT22;56729;52.036;5.332;2022-11-14T07:48:00;3.80;99.90
69533;DHT22;56729;52.036;5.332;2022-11-14T07:49:20;3.80;99.90
69533;DHT22;56729;52.036;5.332;2022-11-14T07:50:41;3.80;99.90
69533;DHT22;56729;52.036;5.332;2022-11-14T07:52:01;3.80;99.90
69533;DHT22;56729;52.036;5.332;2022-11-14T07:53:22;3.80;99.90
69533;DHT22;56729;52.036;5.332;2022-11-14T07:54:43;3.90;99.90
69533;DHT22;56729;52.036;5.332;2022-11-14T07:56:05;3.90;99.90
69533;DHT22;56729;52.036;5.332;2022-11-14T07:57:29;3.90;99.90
69533;DHT22;56729;52.036;5.332;2022-11-14T07:58:53;3.90;99.90
69533;DHT22;56729;52.036;5.332;2022-11-14T08:00:14;3.90;99.90
69533;DHT22;56729;52.036;5.332;2022-11-14T08:01:34;4.00;99.90
69533;DHT22;56729;52.036;5.332;2022-11-14T08:02:55;4.00;99.90
69533;DHT22;56729;52.036;5.332;2022-11-14T08:04:15;4.00;99.90
69533;DHT22;56729;52.036;5.332;2022-11-14T08:05:36;4.00;99.90
69533;DHT22;56729;52.036;5.332;2022-11-14T08:06:56;4.10;99.90
69533;DHT22;56729;52.036;5.332;2022-11-14T08:08:16;4.10;99.90
69533;DHT22;56729;52.036;5.332;2022-11-14T08:09:36;4.10;99.90
69533;DHT22;56729;52.036;5.332;2022-11-14T08:10:57;4.20;99.90
69533;DHT22;56729;52.036;5.332;2022-11-14T08:12:18;4.20;99.90
69533;DHT22;56729;52.036;5.332;2022-11-14T08:13:38;4.30;99.90
69533;DHT22;56729;52.036;5.332;2022-11-14T08:14:59;4.30;99.90
69533;DHT22;56729;52.036;5.332;2022-11-14T08:16:19;4.30;99.90
69533;DHT22;56729;52.036;5.332;2022-11-14T08:17:40;4.40;99.90
69533;DHT22;56729;52.036;5.332;2022-11-14T08:19:01;4.40;99.90
69533;DHT22;56729;52.036;5.332;2022-11-14T08:20:21;4.50;99.90
69533;DHT22;56729;52.036;5.332;2022-11-14T08:21:42;4.50;99.90
69533;DHT22;56729;52.036;5.332;2022-11-14T08:23:04;4.50;99.90
69533;DHT22;56729;52.036;5.332;2022-11-14T08:24:26;4.50;99.90
69533;DHT22;56729;52.036;5.332;2022-11-14T08:25:46;4.60;99.90
69533;DHT22;56729;52.036;5.332;2022-11-14T08:27:06;4.60;99.90
69533;DHT22;56729;52.036;5.332;2022-11-14T08:28:27;4.60;99.90
69533;DHT22;56729;52.036;5.332;2022-11-14T08:29:48;4.70;99.90
69533;DHT22;56729;52.036;5.332;2022-11-14T08:31:10;4.70;99.90
69533;DHT22;56729;52.036;5.332;2022-11-14T08:32:32;4.70;99.90
69533;DHT22;56729;52.036;5.332;2022-11-14T08:33:52;4.80;99.90
69533;DHT22;56729;52.036;5.332;2022-11-14T08:35:13;4.80;99.90
69533;DHT22;56729;52.036;5.332;2022-11-14T08:36:34;4.80;99.90
69533;DHT22;56729;52.036;5.332;2022-11-14T08:37:56;4.90;99.90
69533;DHT22;56729;52.036;5.332;2022-11-14T08:39:16;4.90;99.90
69533;DHT22;56729;52.036;5.332;2022-11-14T08:40:36;4.90;99.90
69533;DHT22;56729;52.036;5.332;2022-11-14T08:41:57;5.00;99.90